Time,TemperatureF,DewpointF,PressureIn,WindDirection,WindDirectionDegrees,WindSpeedMPH,WindSpeedGustMPH,Humidity,HourlyPrecipIn,Conditions,Clouds,dailyrainin,SoftwareType,DateUTC
2013-11-26 00:02:00,30.9,23.3,30.03,West,270,0.0,0.0,73,0.00,,,0.00,WUHU21623XXSP,2013-11-26 06:02:00,
2013-11-26 00:07:00,30.9,23.3,30.03,West,270,0.0,0.0,73,0.00,,,0.00,WUHU21623XXSP,2013-11-26 06:07:00,
2013-11-26 00:12:00,30.7,23.1,30.03,WNW,292,0.7,0.7,73,0.00,,,0.00,WUHU21623XXSP,2013-11-26 06:12:00,
2013-11-26 00:17:00,30.6,22.9,30.03,West,270,0.0,0.7,73,0.00,,,0.00,WUHU21623XXSP,2013-11-26 06:17:00,
2013-11-26 00:18:00,30.6,22.9,30.03,West,270,0.0,0.7,73,0.00,,,0.00,WUHU21623XXSP,2013-11-26 06:18:00,
2013-11-26 00:24:00,30.4,22.7,30.03,West,270,0.0,0.0,73,0.00,,,0.00,WUHU21623XXSP,2013-11-26 06:24:00,
2013-11-26 00:31:00,30.4,23.0,30.03,West,270,0.0,0.0,74,0.00,,,0.00,WUHU21623XXSP,2013-11-26 06:31:00,
2013-11-26 00:37:00,30.4,23.0,30.03,West,270,0.0,0.9,74,0.00,,,0.00,WUHU21623XXSP,2013-11-26 06:37:00,
2013-11-26 00:43:00,30.4,23.0,30.03,West,270,0.0,0.9,74,0.00,,,0.00,WUHU21623XXSP,2013-11-26 06:43:00,
2013-11-26 00:48:00,30.2,22.9,30.03,West,270,0.0,1.8,74,0.00,,,0.00,WUHU21623XXSP,2013-11-26 06:48:00,
2013-11-26 00:54:00,29.8,22.5,30.02,WSW,247,0.4,1.1,74,0.00,,,0.00,WUHU21623XXSP,2013-11-26 06:54:00,
2013-11-26 01:08:00,29.5,22.2,30.02,West,270,0.0,0.4,74,0.00,,,0.00,WUHU21623XXSP,2013-11-26 07:08:00,
2013-11-26 01:13:00,29.7,22.3,30.02,West,270,0.0,0.0,74,0.00,,,0.00,WUHU21623XXSP,2013-11-26 07:13:00,
2013-11-26 01:18:00,29.7,22.3,30.02,West,270,0.0,0.0,74,0.00,,,0.00,WUHU21623XXSP,2013-11-26 07:18:00,
2013-11-26 01:23:00,29.1,21.8,30.03,West,270,0.0,0.0,74,0.00,,,0.00,WUHU21623XXSP,2013-11-26 07:23:00,
2013-11-26 01:28:00,28.8,21.5,30.03,West,270,0.0,0.0,74,0.00,,,0.00,WUHU21623XXSP,2013-11-26 07:28:00,
2013-11-26 01:33:00,28.6,21.3,30.03,West,270,0.0,0.0,74,0.00,,,0.00,WUHU21623XXSP,2013-11-26 07:33:00,
2013-11-26 01:38:00,28.6,21.3,30.03,West,270,0.0,0.0,74,0.00,,,0.00,WUHU21623XXSP,2013-11-26 07:38:00,
2013-11-26 01:43:00,28.8,21.5,30.03,WSW,247,0.0,0.0,74,0.00,,,0.00,WUHU21623XXSP,2013-11-26 07:43:00,
2013-11-26 01:48:00,28.6,21.3,30.04,SW,225,0.0,0.0,74,0.00,,,0.00,WUHU21623XXSP,2013-11-26 07:48:00,
2013-11-26 01:53:00,28.2,21.3,30.04,WSW,247,0.0,0.0,75,0.00,,,0.00,WUHU21623XXSP,2013-11-26 07:53:00,
2013-11-26 01:58:00,28.4,21.5,30.04,SW,225,0.0,0.0,75,0.00,,,0.00,WUHU21623XXSP,2013-11-26 07:58:00,
2013-11-26 02:03:00,28.2,21.3,30.04,SSW,202,0.0,0.0,75,0.00,,,0.00,WUHU21623XXSP,2013-11-26 08:03:00,
2013-11-26 02:08:00,28.4,21.5,30.04,SSW,202,0.0,0.0,75,0.00,,,0.00,WUHU21623XXSP,2013-11-26 08:08:00,
2013-11-26 02:13:00,28.2,21.3,30.04,SSW,202,0.0,0.0,75,0.00,,,0.00,WUHU21623XXSP,2013-11-26 08:13:00,
2013-11-26 02:18:00,28.2,21.3,30.04,SW,225,0.0,0.0,75,0.00,,,0.00,WUHU21623XXSP,2013-11-26 08:18:00,
2013-11-26 02:23:00,28.2,21.3,30.04,SW,225,0.0,0.0,75,0.00,,,0.00,WUHU21623XXSP,2013-11-26 08:23:00,
2013-11-26 02:28:00,28.2,21.3,30.04,SW,225,0.0,0.0,75,0.00,,,0.00,WUHU21623XXSP,2013-11-26 08:28:00,
2013-11-26 02:33:00,28.2,21.3,30.04,SW,225,0.0,0.0,75,0.00,,,0.00,WUHU21623XXSP,2013-11-26 08:33:00,
2013-11-26 02:38:00,28.0,21.1,30.04,SW,225,0.0,0.0,75,0.00,,,0.00,WUHU21623XXSP,2013-11-26 08:38:00,
2013-11-26 02:43:00,28.0,21.1,30.05,SW,225,0.0,0.0,75,0.00,,,0.00,WUHU21623XXSP,2013-11-26 08:43:00,
2013-11-26 02:48:00,28.2,21.3,30.04,SW,225,0.0,0.0,75,0.00,,,0.00,WUHU21623XXSP,2013-11-26 08:48:00,
2013-11-26 02:53:00,28.2,21.6,30.04,SW,225,0.0,0.0,76,0.00,,,0.00,WUHU21623XXSP,2013-11-26 08:53:00,
2013-11-26 02:58:00,28.2,21.4,30.04,SW,225,0.0,0.0,76,0.00,,,0.00,WUHU21623XXSP,2013-11-26 08:58:00,
2013-11-26 03:03:00,28.4,21.8,30.04,SW,225,0.0,0.0,76,0.00,,,0.00,WUHU21623XXSP,2013-11-26 09:03:00,
2013-11-26 03:08:00,28.2,21.6,30.04,SW,225,0.0,0.0,76,0.00,,,0.00,WUHU21623XXSP,2013-11-26 09:08:00,
2013-11-26 03:13:00,28.4,21.8,30.04,SW,225,0.0,0.0,76,0.00,,,0.00,WUHU21623XXSP,2013-11-26 09:13:00,
2013-11-26 03:18:00,28.2,21.6,30.04,SW,225,0.0,0.0,76,0.00,,,0.00,WUHU21623XXSP,2013-11-26 09:18:00,
2013-11-26 03:23:00,28.6,21.9,30.04,SW,225,0.0,0.0,76,0.00,,,0.00,WUHU21623XXSP,2013-11-26 09:23:00,
2013-11-26 03:28:00,28.6,22.2,30.04,WSW,247,0.0,0.0,77,0.00,,,0.00,WUHU21623XXSP,2013-11-26 09:28:00,
2013-11-26 03:33:00,28.6,22.2,30.04,SW,225,0.0,0.0,77,0.00,,,0.00,WUHU21623XXSP,2013-11-26 09:33:00,
2013-11-26 03:38:00,28.6,22.2,30.04,SW,225,0.0,0.0,77,0.00,,,0.00,WUHU21623XXSP,2013-11-26 09:38:00,
2013-11-26 03:43:00,28.6,22.2,30.03,WSW,247,0.0,0.0,77,0.00,,,0.00,WUHU21623XXSP,2013-11-26 09:43:00,
2013-11-26 03:48:00,28.6,22.2,30.03,WSW,247,0.0,0.0,77,0.00,,,0.00,WUHU21623XXSP,2013-11-26 09:48:00,
2013-11-26 03:53:00,28.9,22.6,30.03,SW,225,0.0,0.0,77,0.00,,,0.00,WUHU21623XXSP,2013-11-26 09:53:00,
2013-11-26 03:58:00,28.8,22.4,30.03,WSW,247,0.0,0.0,77,0.00,,,0.00,WUHU21623XXSP,2013-11-26 09:58:00,
2013-11-26 04:03:00,28.6,22.2,30.02,SW,225,0.0,0.0,77,0.00,,,0.00,WUHU21623XXSP,2013-11-26 10:03:00,
2013-11-26 04:08:00,28.8,22.4,30.02,SW,225,0.0,0.0,77,0.00,,,0.00,WUHU21623XXSP,2013-11-26 10:08:00,
2013-11-26 04:13:00,28.6,22.2,30.02,WSW,247,0.0,0.0,77,0.00,,,0.00,WUHU21623XXSP,2013-11-26 10:13:00,
2013-11-26 04:18:00,28.8,22.7,30.02,SW,225,0.0,0.0,78,0.00,,,0.00,WUHU21623XXSP,2013-11-26 10:18:00,
2013-11-26 04:23:00,28.6,22.5,30.02,West,270,0.0,0.0,78,0.00,,,0.00,WUHU21623XXSP,2013-11-26 10:23:00,
2013-11-26 04:28:00,28.8,22.7,30.02,West,270,0.0,0.0,78,0.00,,,0.00,WUHU21623XXSP,2013-11-26 10:28:00,
2013-11-26 04:33:00,28.8,22.7,30.02,West,270,0.0,0.0,78,0.00,,,0.00,WUHU21623XXSP,2013-11-26 10:33:00,
2013-11-26 04:38:00,28.8,22.7,30.02,SW,225,0.0,0.0,78,0.00,,,0.00,WUHU21623XXSP,2013-11-26 10:38:00,
2013-11-26 04:43:00,28.8,22.7,30.02,SW,225,0.0,0.0,78,0.00,,,0.00,WUHU21623XXSP,2013-11-26 10:43:00,
2013-11-26 04:48:00,29.1,23.1,30.02,WSW,247,0.0,0.0,78,0.00,,,0.00,WUHU21623XXSP,2013-11-26 10:48:00,
2013-11-26 04:53:00,28.8,22.7,30.03,SSW,202,0.0,0.0,78,0.00,,,0.00,WUHU21623XXSP,2013-11-26 10:53:00,
2013-11-26 04:58:00,28.8,22.7,30.03,SSW,202,0.0,0.0,78,0.00,,,0.00,WUHU21623XXSP,2013-11-26 10:58:00,
2013-11-26 05:03:00,28.8,22.7,30.03,SW,225,0.0,0.0,78,0.00,,,0.00,WUHU21623XXSP,2013-11-26 11:03:00,
2013-11-26 05:08:00,28.8,22.7,30.03,SW,225,0.0,0.0,78,0.00,,,0.00,WUHU21623XXSP,2013-11-26 11:08:00,
2013-11-26 05:13:00,28.9,22.9,30.03,SW,225,0.0,0.0,78,0.00,,,0.00,WUHU21623XXSP,2013-11-26 11:13:00,
2013-11-26 05:18:00,28.6,22.5,30.03,SW,225,0.0,0.0,78,0.00,,,0.00,WUHU21623XXSP,2013-11-26 11:18:00,
2013-11-26 05:23:00,28.6,22.5,30.03,SW,225,0.0,0.0,78,0.00,,,0.00,WUHU21623XXSP,2013-11-26 11:23:00,
2013-11-26 05:28:00,28.6,22.5,30.02,SW,225,0.0,0.0,78,0.00,,,0.00,WUHU21623XXSP,2013-11-26 11:28:00,
2013-11-26 05:33:00,28.6,22.5,30.03,SW,225,0.0,0.0,78,0.00,,,0.00,WUHU21623XXSP,2013-11-26 11:33:00,
2013-11-26 05:38:00,28.6,22.5,30.03,SW,225,0.0,0.0,78,0.00,,,0.00,WUHU21623XXSP,2013-11-26 11:38:00,
2013-11-26 05:43:00,28.6,22.5,30.03,WSW,247,0.0,0.0,78,0.00,,,0.00,WUHU21623XXSP,2013-11-26 11:43:00,
2013-11-26 05:48:00,28.6,22.5,30.03,West,270,0.0,0.0,78,0.00,,,0.00,WUHU21623XXSP,2013-11-26 11:48:00,
2013-11-26 05:53:00,28.6,22.5,30.03,WSW,247,0.0,0.0,78,0.00,,,0.00,WUHU21623XXSP,2013-11-26 11:53:00,
2013-11-26 05:58:00,28.6,22.5,30.03,WSW,247,0.0,0.0,78,0.00,,,0.00,WUHU21623XXSP,2013-11-26 11:58:00,
2013-11-26 06:03:00,28.6,22.5,30.03,WSW,247,0.0,0.0,78,0.00,,,0.00,WUHU21623XXSP,2013-11-26 12:03:00,
2013-11-26 06:08:00,28.6,22.5,30.03,SW,225,0.0,0.0,78,0.00,,,0.00,WUHU21623XXSP,2013-11-26 12:08:00,
2013-11-26 06:13:00,28.6,22.5,30.04,SW,225,0.0,0.0,78,0.00,,,0.00,WUHU21623XXSP,2013-11-26 12:13:00,
2013-11-26 06:18:00,28.6,22.5,30.04,SW,225,0.0,0.0,78,0.00,,,0.00,WUHU21623XXSP,2013-11-26 12:18:00,
2013-11-26 06:23:00,28.6,22.5,30.04,WSW,247,0.0,0.0,78,0.00,,,0.00,WUHU21623XXSP,2013-11-26 12:23:00,
2013-11-26 06:28:00,28.6,22.5,30.04,SW,225,0.0,0.0,78,0.00,,,0.00,WUHU21623XXSP,2013-11-26 12:28:00,
2013-11-26 06:33:00,28.8,22.7,30.04,SW,225,0.0,0.0,78,0.00,,,0.00,WUHU21623XXSP,2013-11-26 12:33:00,
2013-11-26 06:38:00,28.6,22.5,30.04,SW,225,0.0,0.0,77,0.00,,,0.00,WUHU21623XXSP,2013-11-26 12:38:00,
2013-11-26 06:43:00,28.6,22.2,30.04,SW,225,0.0,0.0,77,0.00,,,0.00,WUHU21623XXSP,2013-11-26 12:43:00,
2013-11-26 06:48:00,28.6,22.2,30.04,WSW,247,0.0,0.0,77,0.00,,,0.00,WUHU21623XXSP,2013-11-26 12:48:00,
2013-11-26 06:53:00,28.6,22.2,30.04,WSW,247,0.0,0.0,77,0.00,,,0.00,WUHU21623XXSP,2013-11-26 12:53:00,
2013-11-26 06:58:00,28.6,22.2,30.04,SW,225,0.0,0.0,77,0.00,,,0.00,WUHU21623XXSP,2013-11-26 12:58:00,
2013-11-26 07:03:00,28.6,22.2,30.04,WNW,292,0.0,0.0,77,0.00,,,0.00,WUHU21623XXSP,2013-11-26 13:03:00,
2013-11-26 07:08:00,28.6,22.2,30.04,WSW,247,0.0,0.0,77,0.00,,,0.00,WUHU21623XXSP,2013-11-26 13:08:00,
2013-11-26 07:13:00,28.6,22.2,30.04,West,270,0.0,0.0,77,0.00,,,0.00,WUHU21623XXSP,2013-11-26 13:13:00,
2013-11-26 07:18:00,28.6,22.2,30.03,West,270,0.0,0.0,77,0.00,,,0.00,WUHU21623XXSP,2013-11-26 13:18:00,
2013-11-26 07:23:00,28.8,22.4,30.04,West,270,2.5,2.5,77,0.00,,,0.00,WUHU21623XXSP,2013-11-26 13:23:00,
2013-11-26 07:28:00,28.8,22.4,30.04,West,270,0.0,2.5,77,0.00,,,0.00,WUHU21623XXSP,2013-11-26 13:28:00,
2013-11-26 07:33:00,28.9,22.3,30.04,WSW,247,1.3,1.3,76,0.00,,,0.00,WUHU21623XXSP,2013-11-26 13:33:00,
2013-11-26 07:38:00,28.8,22.1,30.03,WNW,292,0.0,1.3,76,0.00,,,0.00,WUHU21623XXSP,2013-11-26 13:38:00,
2013-11-26 07:43:00,28.9,22.3,30.03,West,270,1.1,1.1,76,0.00,,,0.00,WUHU21623XXSP,2013-11-26 13:43:00,
2013-11-26 07:48:00,29.1,22.5,30.03,WSW,247,0.0,1.1,76,0.00,,,0.00,WUHU21623XXSP,2013-11-26 13:48:00,
2013-11-26 07:53:00,29.1,22.5,30.03,West,270,0.0,0.2,76,0.00,,,0.00,WUHU21623XXSP,2013-11-26 13:53:00,
2013-11-26 07:58:00,29.1,22.2,30.03,West,270,0.0,0.2,75,0.00,,,0.00,WUHU21623XXSP,2013-11-26 13:58:00,
2013-11-26 08:03:00,29.1,22.2,30.02,WSW,247,0.0,2.2,75,0.00,,,0.00,WUHU21623XXSP,2013-11-26 14:03:00,
2013-11-26 08:08:00,29.3,22.3,30.02,WNW,292,0.0,2.2,75,0.00,,,0.00,WUHU21623XXSP,2013-11-26 14:08:00,
2013-11-26 08:13:00,29.7,22.7,30.02,West,270,0.0,0.0,75,0.00,,,0.00,WUHU21623XXSP,2013-11-26 14:13:00,
2013-11-26 08:18:00,29.5,22.2,30.03,West,270,0.0,1.3,74,0.00,,,0.00,WUHU21623XXSP,2013-11-26 14:18:00,
2013-11-26 08:23:00,30.0,22.7,30.03,WSW,247,0.0,2.5,74,0.00,,,0.00,WUHU21623XXSP,2013-11-26 14:23:00,
2013-11-26 08:28:00,29.7,22.3,30.03,WNW,292,0.0,2.5,74,0.00,,,0.00,WUHU21623XXSP,2013-11-26 14:28:00,
2013-11-26 08:33:00,30.0,22.7,30.03,West,270,0.0,0.0,74,0.00,,,0.00,WUHU21623XXSP,2013-11-26 14:33:00,
2013-11-26 08:38:00,30.4,22.7,30.03,West,270,0.0,0.9,73,0.00,,,0.00,WUHU21623XXSP,2013-11-26 14:38:00,
2013-11-26 08:43:00,30.4,22.7,30.03,West,270,0.0,4.3,73,0.00,,,0.00,WUHU21623XXSP,2013-11-26 14:43:00,
2013-11-26 08:48:00,30.6,22.9,30.03,West,270,0.0,4.3,73,0.00,,,0.00,WUHU21623XXSP,2013-11-26 14:48:00,
2013-11-26 08:53:00,30.7,22.7,30.04,WSW,247,1.3,1.6,72,0.00,,,0.00,WUHU21623XXSP,2013-11-26 14:53:00,
2013-11-26 08:58:00,30.9,22.9,30.04,WNW,292,0.7,1.3,72,0.00,,,0.00,WUHU21623XXSP,2013-11-26 14:58:00,
2013-11-26 09:03:00,31.1,23.1,30.05,WNW,292,0.0,1.3,72,0.00,,,0.00,WUHU21623XXSP,2013-11-26 15:03:00,
2013-11-26 09:08:00,31.6,23.6,30.05,WSW,247,0.0,1.3,72,0.00,,,0.00,WUHU21623XXSP,2013-11-26 15:08:00,
2013-11-26 09:13:00,31.6,23.6,30.05,West,270,2.2,2.2,72,0.00,,,0.00,WUHU21623XXSP,2013-11-26 15:13:00,
2013-11-26 09:18:00,31.8,23.5,30.05,WSW,247,0.0,2.2,71,0.00,,,0.00,WUHU21623XXSP,2013-11-26 15:18:00,
2013-11-26 09:23:00,32.2,23.8,30.05,NW,315,3.8,3.8,71,0.00,,,0.00,WUHU21623XXSP,2013-11-26 15:23:00,
2013-11-26 09:28:00,32.2,23.8,30.05,WNW,292,0.0,3.8,71,0.00,,,0.00,WUHU21623XXSP,2013-11-26 15:28:00,
2013-11-26 09:33:00,32.2,23.5,30.05,NW,315,0.0,0.0,70,0.00,,,0.00,WUHU21623XXSP,2013-11-26 15:33:00,
2013-11-26 09:39:00,32.2,23.5,30.05,WNW,292,0.0,0.0,70,0.00,,,0.00,WUHU21623XXSP,2013-11-26 15:39:00,
2013-11-26 09:45:00,32.2,23.5,30.04,NW,315,1.3,1.3,70,0.00,,,0.00,WUHU21623XXSP,2013-11-26 15:45:00,
2013-11-26 09:57:00,32.2,23.5,30.05,NW,315,2.2,4.3,70,0.00,,,0.00,WUHU21623XXSP,2013-11-26 15:57:00,
2013-11-26 10:02:00,32.4,23.3,30.05,NW,315,0.0,3.6,69,0.00,,,0.00,WUHU21623XXSP,2013-11-26 16:02:00,
2013-11-26 10:07:00,32.4,23.0,30.04,West,270,3.6,9.4,68,0.00,,,0.00,WUHU21623XXSP,2013-11-26 16:07:00,
2013-11-26 10:12:00,32.5,23.1,30.04,NNW,337,2.7,9.4,68,0.00,,,0.00,WUHU21623XXSP,2013-11-26 16:12:00,
2013-11-26 10:17:00,32.5,22.8,30.05,NW,315,5.6,6.0,67,0.00,,,0.00,WUHU21623XXSP,2013-11-26 16:17:00,
2013-11-26 10:22:00,32.7,22.9,30.04,NNW,337,5.8,6.3,67,0.00,,,0.00,WUHU21623XXSP,2013-11-26 16:22:00,
2013-11-26 10:27:00,32.9,22.7,30.04,NNW,337,0.0,6.3,66,0.00,,,0.00,WUHU21623XXSP,2013-11-26 16:27:00,
2013-11-26 10:32:00,32.9,22.7,30.05,NW,315,7.8,7.8,66,0.00,,,0.00,WUHU21623XXSP,2013-11-26 16:32:00,
2013-11-26 10:37:00,32.9,22.7,30.05,NW,315,11.0,11.0,66,0.00,,,0.00,WUHU21623XXSP,2013-11-26 16:37:00,
2013-11-26 10:42:00,32.9,22.4,30.05,NW,315,4.0,11.0,65,0.00,,,0.00,WUHU21623XXSP,2013-11-26 16:42:00,
2013-11-26 10:47:00,32.9,22.4,30.05,NNW,337,3.4,4.0,65,0.00,,,0.00,WUHU21623XXSP,2013-11-26 16:47:00,
2013-11-26 10:52:00,32.9,22.0,30.05,NW,315,1.8,5.4,64,0.00,,,0.00,WUHU21623XXSP,2013-11-26 16:52:00,
2013-11-26 10:57:00,32.9,22.0,30.05,NW,315,5.1,5.4,64,0.00,,,0.00,WUHU21623XXSP,2013-11-26 16:57:00,
2013-11-26 11:02:00,32.7,22.0,30.05,West,270,1.1,5.1,64,0.00,,,0.00,WUHU21623XXSP,2013-11-26 17:02:00,
2013-11-26 11:07:00,32.7,21.8,30.05,WNW,292,4.0,4.0,64,0.00,,,0.00,WUHU21623XXSP,2013-11-26 17:07:00,
2013-11-26 11:12:00,32.5,21.3,30.05,WNW,292,0.0,4.0,63,0.00,,,0.00,WUHU21623XXSP,2013-11-26 17:12:00,
2013-11-26 11:17:00,32.4,21.2,30.05,NW,315,0.0,5.4,63,0.00,,,0.00,WUHU21623XXSP,2013-11-26 17:17:00,
2013-11-26 11:22:00,32.2,21.0,30.06,West,270,2.5,5.4,63,0.00,,,0.00,WUHU21623XXSP,2013-11-26 17:22:00,
2013-11-26 11:27:00,32.2,21.0,30.05,NNW,337,3.8,5.6,63,0.00,,,0.00,WUHU21623XXSP,2013-11-26 17:27:00,
2013-11-26 11:32:00,31.6,20.5,30.06,NW,315,3.4,5.6,63,0.00,,,0.00,WUHU21623XXSP,2013-11-26 17:32:00,
2013-11-26 11:37:00,31.6,20.5,30.06,WNW,292,0.0,3.4,63,0.00,,,0.00,WUHU21623XXSP,2013-11-26 17:37:00,
2013-11-26 11:42:00,31.5,20.3,30.05,WNW,292,7.4,7.4,63,0.00,,,0.00,WUHU21623XXSP,2013-11-26 17:42:00,
2013-11-26 11:47:00,31.3,20.1,30.05,NW,315,0.0,12.8,63,0.00,,,0.00,WUHU21623XXSP,2013-11-26 17:47:00,
2013-11-26 11:52:00,31.3,20.1,30.05,NW,315,2.7,12.8,63,0.00,,,0.00,WUHU21623XXSP,2013-11-26 17:52:00,
2013-11-26 11:57:00,31.3,20.1,30.04,North,0,0.0,5.6,63,0.00,,,0.00,WUHU21623XXSP,2013-11-26 17:57:00,
2013-11-26 12:02:00,31.1,19.9,30.04,WNW,292,4.0,4.0,63,0.00,,,0.00,WUHU21623XXSP,2013-11-26 18:02:00,
2013-11-26 12:07:00,31.1,19.9,30.04,NW,315,4.3,4.3,63,0.00,,,0.00,WUHU21623XXSP,2013-11-26 18:07:00,
2013-11-26 12:12:00,30.9,19.8,30.04,NW,315,0.0,4.3,63,0.00,,,0.00,WUHU21623XXSP,2013-11-26 18:12:00,
2013-11-26 12:17:00,31.1,19.9,30.05,NW,315,0.0,3.6,63,0.00,,,0.00,WUHU21623XXSP,2013-11-26 18:17:00,
2013-11-26 12:22:00,31.5,20.7,30.05,NNW,337,0.0,3.6,64,0.00,,,0.00,WUHU21623XXSP,2013-11-26 18:22:00,
2013-11-26 12:27:00,31.8,21.0,30.04,West,270,0.0,5.8,64,0.00,,,0.00,WUHU21623XXSP,2013-11-26 18:27:00,
2013-11-26 12:32:00,32.2,21.0,30.04,West,270,1.1,7.2,63,0.00,,,0.00,WUHU21623XXSP,2013-11-26 18:32:00,
2013-11-26 12:37:00,32.2,21.0,30.04,West,270,0.0,7.2,63,0.00,,,0.00,WUHU21623XXSP,2013-11-26 18:37:00,
2013-11-26 12:42:00,32.4,20.8,30.05,NW,315,4.7,5.8,62,0.00,,,0.00,WUHU21623XXSP,2013-11-26 18:42:00,
2013-11-26 12:47:00,32.7,21.1,30.05,NNW,337,5.6,5.8,62,0.00,,,0.00,WUHU21623XXSP,2013-11-26 18:47:00,
2013-11-26 12:52:00,32.7,20.8,30.05,WSW,247,0.0,5.8,61,0.00,,,0.00,WUHU21623XXSP,2013-11-26 18:52:00,
2013-11-26 12:57:00,32.9,20.9,30.05,NW,315,4.9,5.8,61,0.00,,,0.00,WUHU21623XXSP,2013-11-26 18:57:00,
2013-11-26 13:02:00,32.9,20.6,30.05,West,270,3.6,4.9,60,0.00,,,0.00,WUHU21623XXSP,2013-11-26 19:02:00,
2013-11-26 13:07:00,32.7,20.4,30.05,NW,315,5.1,10.1,60,0.00,,,0.00,WUHU21623XXSP,2013-11-26 19:07:00,
2013-11-26 13:12:00,32.7,20.4,30.05,WNW,292,1.6,10.1,60,0.00,,,0.00,WUHU21623XXSP,2013-11-26 19:12:00,
2013-11-26 13:17:00,32.9,20.6,30.05,WNW,292,0.0,5.1,60,0.00,,,0.00,WUHU21623XXSP,2013-11-26 19:17:00,
2013-11-26 13:22:00,33.8,21.7,30.05,NW,315,2.7,5.6,61,0.00,,,0.00,WUHU21623XXSP,2013-11-26 19:22:00,
2013-11-26 13:27:00,34.0,21.6,30.05,WNW,292,4.7,5.6,60,0.00,,,0.00,WUHU21623XXSP,2013-11-26 19:27:00,
2013-11-26 13:32:00,34.2,20.4,30.05,WNW,292,4.0,6.3,57,0.00,,,0.00,WUHU21623XXSP,2013-11-26 19:32:00,
2013-11-26 13:37:00,34.2,19.6,30.05,West,270,2.5,11.0,55,0.00,,,0.00,WUHU21623XXSP,2013-11-26 19:37:00,
2013-11-26 13:42:00,34.2,18.7,30.05,WNW,292,2.0,11.0,53,0.00,,,0.00,WUHU21623XXSP,2013-11-26 19:42:00,
2013-11-26 13:47:00,35.2,19.4,30.05,NW,315,1.6,3.6,52,0.00,,,0.00,WUHU21623XXSP,2013-11-26 19:47:00,
2013-11-26 13:52:00,35.8,19.0,30.05,WNW,292,4.5,8.5,50,0.00,,,0.00,WUHU21623XXSP,2013-11-26 19:52:00,
2013-11-26 13:57:00,36.5,19.7,30.05,NW,315,0.4,8.5,50,0.00,,,0.00,WUHU21623XXSP,2013-11-26 19:57:00,
2013-11-26 14:02:00,37.0,19.6,30.05,WSW,247,8.5,8.5,49,0.00,,,0.00,WUHU21623XXSP,2013-11-26 20:02:00,
2013-11-26 14:07:00,37.6,19.6,30.05,NW,315,6.0,8.5,48,0.00,,,0.00,WUHU21623XXSP,2013-11-26 20:07:00,
2013-11-26 14:12:00,37.4,18.4,30.05,WNW,292,2.5,8.5,46,0.00,,,0.00,WUHU21623XXSP,2013-11-26 20:12:00,
2013-11-26 14:17:00,37.8,18.7,30.05,WSW,247,0.2,2.5,46,0.00,,,0.00,WUHU21623XXSP,2013-11-26 20:17:00,
2013-11-26 14:22:00,38.3,18.2,30.05,NW,315,11.6,11.6,44,0.00,,,0.00,WUHU21623XXSP,2013-11-26 20:22:00,
2013-11-26 14:27:00,37.9,16.8,30.05,NNW,337,6.0,11.6,42,0.00,,,0.00,WUHU21623XXSP,2013-11-26 20:27:00,
2013-11-26 14:32:00,37.0,16.0,30.05,NW,315,10.1,10.1,42,0.00,,,0.00,WUHU21623XXSP,2013-11-26 20:32:00,
2013-11-26 14:37:00,36.3,15.3,30.05,NW,315,0.0,10.1,42,0.00,,,0.00,WUHU21623XXSP,2013-11-26 20:37:00,
2013-11-26 14:42:00,34.9,14.0,30.06,NNW,337,6.9,6.9,42,0.00,,,0.00,WUHU21623XXSP,2013-11-26 20:42:00,
2013-11-26 14:47:00,34.3,13.5,30.06,NW,315,6.7,6.9,42,0.00,,,0.00,WUHU21623XXSP,2013-11-26 20:47:00,
2013-11-26 14:52:00,33.6,12.9,30.06,NW,315,11.4,11.4,42,0.00,,,0.00,WUHU21623XXSP,2013-11-26 20:52:00,
2013-11-26 14:57:00,32.9,12.2,30.06,North,0,0.0,11.4,42,0.00,,,0.00,WUHU21623XXSP,2013-11-26 20:57:00,
2013-11-26 15:02:00,32.2,11.6,30.06,NW,315,1.1,6.9,42,0.00,,,0.00,WUHU21623XXSP,2013-11-26 21:02:00,
2013-11-26 15:07:00,31.3,11.2,30.06,NNW,337,0.7,6.9,42,0.00,,,0.00,WUHU21623XXSP,2013-11-26 21:07:00,
2013-11-26 15:12:00,32.0,11.4,30.06,WNW,292,8.1,8.1,42,0.00,,,0.00,WUHU21623XXSP,2013-11-26 21:12:00,
2013-11-26 15:17:00,31.8,11.2,30.06,NNW,337,4.0,8.1,42,0.00,,,0.00,WUHU21623XXSP,2013-11-26 21:17:00,
2013-11-26 15:22:00,32.7,12.6,30.06,WNW,292,2.9,6.3,43,0.00,,,0.00,WUHU21623XXSP,2013-11-26 21:22:00,
2013-11-26 15:27:00,34.7,14.4,30.06,NE,45,1.8,8.7,43,0.00,,,0.00,WUHU21623XXSP,2013-11-26 21:27:00,
2013-11-26 15:32:00,34.7,13.3,30.06,NNW,337,3.1,8.7,41,0.00,,,0.00,WUHU21623XXSP,2013-11-26 21:32:00,
2013-11-26 15:37:00,34.3,11.2,30.07,NW,315,6.5,12.5,38,0.00,,,0.00,WUHU21623XXSP,2013-11-26 21:37:00,
2013-11-26 15:42:00,34.3,10.6,30.07,NNW,337,3.8,12.5,37,0.00,,,0.00,WUHU21623XXSP,2013-11-26 21:42:00,
2013-11-26 15:47:00,33.4,8.5,30.07,NW,315,4.0,11.0,35,0.00,,,0.00,WUHU21623XXSP,2013-11-26 21:47:00,
2013-11-26 15:52:00,32.7,5.4,30.08,WNW,292,5.8,11.0,31,0.00,,,0.00,WUHU21623XXSP,2013-11-26 21:52:00,
2013-11-26 15:57:00,30.9,-6.6,30.08,NW,315,5.8,6.9,19,0.00,,,0.00,WUHU21623XXSP,2013-11-26 21:57:00,
2013-11-26 16:02:00,29.8,-7.5,30.08,North,0,6.3,6.9,19,0.00,,,0.00,WUHU21623XXSP,2013-11-26 22:02:00,
2013-11-26 16:07:00,28.8,-8.3,30.08,NW,315,2.5,7.2,19,0.00,,,0.00,WUHU21623XXSP,2013-11-26 22:07:00,
2013-11-26 16:12:00,27.9,-9.1,30.09,North,0,2.0,7.2,19,0.00,,,0.00,WUHU21623XXSP,2013-11-26 22:12:00,
2013-11-26 16:17:00,27.1,-8.6,30.09,NW,315,5.6,6.7,20,0.00,,,0.00,WUHU21623XXSP,2013-11-26 22:17:00,
2013-11-26 16:22:00,26.1,-6.2,30.09,WNW,292,0.0,6.7,24,0.00,,,0.00,WUHU21623XXSP,2013-11-26 22:22:00,
2013-11-26 16:27:00,25.2,-6.1,30.09,West,270,2.9,4.3,25,0.00,,,0.00,WUHU21623XXSP,2013-11-26 22:27:00,
2013-11-26 16:32:00,25.0,-2.9,30.09,West,270,5.4,5.4,29,0.00,,,0.00,WUHU21623XXSP,2013-11-26 22:32:00,
2013-11-26 16:37:00,24.4,-1.9,30.10,NW,315,4.9,5.4,31,0.00,,,0.00,WUHU21623XXSP,2013-11-26 22:37:00,
2013-11-26 16:42:00,23.7,-1.9,30.10,WNW,292,7.8,7.8,32,0.00,,,0.00,WUHU21623XXSP,2013-11-26 22:42:00,
2013-11-26 16:47:00,23.4,-1.0,30.11,NNW,337,4.9,7.8,34,0.00,,,0.00,WUHU21623XXSP,2013-11-26 22:47:00,
2013-11-26 16:52:00,23.0,-0.8,30.11,West,270,0.0,4.9,35,0.00,,,0.00,WUHU21623XXSP,2013-11-26 22:52:00,
2013-11-26 16:57:00,22.6,-0.5,30.11,NNW,337,6.0,6.0,36,0.00,,,0.00,WUHU21623XXSP,2013-11-26 22:57:00,
2013-11-26 17:02:00,22.3,-0.8,30.11,NW,315,1.3,6.0,36,0.00,,,0.00,WUHU21623XXSP,2013-11-26 23:02:00,
2013-11-26 17:07:00,21.9,0.1,30.12,NNW,337,4.7,4.7,38,0.00,,,0.00,WUHU21623XXSP,2013-11-26 23:07:00,
2013-11-26 17:12:00,21.7,0.6,30.12,NNW,337,0.9,4.7,39,0.00,,,0.00,WUHU21623XXSP,2013-11-26 23:12:00,
2013-11-26 17:17:00,21.6,1.0,30.12,WNW,292,2.7,5.8,40,0.00,,,0.00,WUHU21623XXSP,2013-11-26 23:17:00,
2013-11-26 17:22:00,21.0,1.0,30.12,NNW,337,4.0,5.8,41,0.00,,,0.00,WUHU21623XXSP,2013-11-26 23:22:00,
2013-11-26 17:27:00,20.8,0.8,30.13,NNW,337,1.3,5.6,41,0.00,,,0.00,WUHU21623XXSP,2013-11-26 23:27:00,
2013-11-26 17:32:00,20.7,0.7,30.13,WNW,292,5.6,5.6,41,0.00,,,0.00,WUHU21623XXSP,2013-11-26 23:32:00,
2013-11-26 17:37:00,20.5,0.5,30.13,WNW,292,2.7,5.6,41,0.00,,,0.00,WUHU21623XXSP,2013-11-26 23:37:00,
2013-11-26 17:42:00,20.1,0.2,30.14,NNW,337,2.7,5.6,41,0.00,,,0.00,WUHU21623XXSP,2013-11-26 23:42:00,
2013-11-26 17:47:00,19.9,0.0,30.14,NW,315,10.7,10.7,41,0.00,,,0.00,WUHU21623XXSP,2013-11-26 23:47:00,
2013-11-26 17:52:00,19.6,-0.3,30.14,NNW,337,2.9,10.7,41,0.00,,,0.00,WUHU21623XXSP,2013-11-26 23:52:00,
2013-11-26 17:57:00,19.6,-0.3,30.14,NNW,337,4.3,5.4,41,0.00,,,0.00,WUHU21623XXSP,2013-11-26 23:57:00,
2013-11-26 18:02:00,19.4,-0.9,30.15,NW,315,0.7,4.3,40,0.00,,,0.00,WUHU21623XXSP,2013-11-27 00:02:00,
2013-11-26 18:07:00,19.2,-1.1,30.15,NW,315,0.2,3.8,40,0.00,,,0.00,WUHU21623XXSP,2013-11-27 00:07:00,
2013-11-26 18:12:00,19.0,-1.3,30.15,NNW,337,0.4,3.8,40,0.00,,,0.00,WUHU21623XXSP,2013-11-27 00:12:00,
2013-11-26 18:17:00,18.9,-2.0,30.15,North,0,2.0,2.9,39,0.00,,,0.00,WUHU21623XXSP,2013-11-27 00:17:00,
2013-11-26 18:22:00,18.7,-2.2,30.15,NW,315,0.0,2.9,39,0.00,,,0.00,WUHU21623XXSP,2013-11-27 00:22:00,
2013-11-26 18:27:00,18.5,-2.4,30.15,West,270,2.5,6.5,39,0.00,,,0.00,WUHU21623XXSP,2013-11-27 00:27:00,
2013-11-26 18:32:00,18.5,-2.4,30.15,NW,315,2.7,6.5,39,0.00,,,0.00,WUHU21623XXSP,2013-11-27 00:32:00,
2013-11-26 18:37:00,18.3,-3.1,30.15,NW,315,1.3,5.8,38,0.00,,,0.00,WUHU21623XXSP,2013-11-27 00:37:00,
2013-11-26 18:42:00,18.1,-3.3,30.16,NW,315,3.4,3.4,38,0.00,,,0.00,WUHU21623XXSP,2013-11-27 00:42:00,
2013-11-26 18:47:00,18.0,-3.5,30.16,WNW,292,3.1,4.0,38,0.00,,,0.00,WUHU21623XXSP,2013-11-27 00:47:00,
2013-11-26 18:52:00,17.8,-3.0,30.16,NNW,337,3.4,4.0,39,0.00,,,0.00,WUHU21623XXSP,2013-11-27 00:52:00,
2013-11-26 18:57:00,17.8,-3.0,30.16,NNW,337,0.0,3.4,39,0.00,,,0.00,WUHU21623XXSP,2013-11-27 00:57:00,
2013-11-26 19:02:00,17.4,-3.4,30.17,NNW,337,4.0,4.0,39,0.00,,,0.00,WUHU21623XXSP,2013-11-27 01:02:00,
2013-11-26 19:07:00,17.2,-3.5,30.17,NW,315,3.8,4.0,39,0.00,,,0.00,WUHU21623XXSP,2013-11-27 01:07:00,
2013-11-26 19:12:00,17.1,-3.7,30.18,NW,315,0.0,3.8,39,0.00,,,0.00,WUHU21623XXSP,2013-11-27 01:12:00,
2013-11-26 19:17:00,17.1,-3.7,30.18,NW,315,1.6,1.6,39,0.00,,,0.00,WUHU21623XXSP,2013-11-27 01:17:00,
2013-11-26 19:22:00,17.1,-3.7,30.18,NNW,337,0.0,1.6,39,0.00,,,0.00,WUHU21623XXSP,2013-11-27 01:22:00,
2013-11-26 19:27:00,16.9,-3.9,30.18,NW,315,3.6,3.6,39,0.00,,,0.00,WUHU21623XXSP,2013-11-27 01:27:00,
2013-11-26 19:32:00,16.7,-4.1,30.18,NNE,22,0.0,3.6,39,0.00,,,0.00,WUHU21623XXSP,2013-11-27 01:32:00,
2013-11-26 19:37:00,16.5,-4.2,30.18,NNW,337,0.0,6.5,39,0.00,,,0.00,WUHU21623XXSP,2013-11-27 01:37:00,
2013-11-26 19:42:00,16.3,-4.4,30.18,NW,315,0.0,6.5,39,0.00,,,0.00,WUHU21623XXSP,2013-11-27 01:42:00,
2013-11-26 19:47:00,16.3,-3.8,30.18,NNE,22,4.5,4.5,40,0.00,,,0.00,WUHU21623XXSP,2013-11-27 01:47:00,
2013-11-26 19:52:00,16.3,-3.8,30.18,NNW,337,1.1,4.5,40,0.00,,,0.00,WUHU21623XXSP,2013-11-27 01:52:00,
2013-11-26 19:57:00,16.2,-4.0,30.19,WNW,292,0.0,2.9,40,0.00,,,0.00,WUHU21623XXSP,2013-11-27 01:57:00,
2013-11-26 20:02:00,16.2,-4.0,30.18,North,0,13.0,13.0,40,0.00,,,0.00,WUHU21623XXSP,2013-11-27 02:02:00,
2013-11-26 20:07:00,16.0,-4.2,30.18,NW,315,1.6,13.0,40,0.00,,,0.00,WUHU21623XXSP,2013-11-27 02:07:00,
2013-11-26 20:12:00,16.0,-4.2,30.18,NNE,22,0.0,1.6,40,0.00,,,0.00,WUHU21623XXSP,2013-11-27 02:12:00,
2013-11-26 20:17:00,16.0,-4.2,30.18,NNE,22,0.7,5.8,40,0.00,,,0.00,WUHU21623XXSP,2013-11-27 02:17:00,
2013-11-26 20:22:00,16.0,-4.2,30.19,NNW,337,4.9,6.5,40,0.00,,,0.00,WUHU21623XXSP,2013-11-27 02:22:00,
2013-11-26 20:27:00,16.0,-4.2,30.19,NNW,337,0.0,6.5,40,0.00,,,0.00,WUHU21623XXSP,2013-11-27 02:27:00,
2013-11-26 20:32:00,15.8,-4.4,30.19,NNE,22,5.8,5.8,40,0.00,,,0.00,WUHU21623XXSP,2013-11-27 02:32:00,
2013-11-26 20:37:00,15.6,-4.5,30.18,NW,315,0.0,5.8,40,0.00,,,0.00,WUHU21623XXSP,2013-11-27 02:37:00,
2013-11-26 20:42:00,15.6,-4.5,30.18,NNE,22,4.3,4.3,40,0.00,,,0.00,WUHU21623XXSP,2013-11-27 02:42:00,
2013-11-26 20:47:00,15.4,-4.7,30.18,North,0,1.1,4.3,40,0.00,,,0.00,WUHU21623XXSP,2013-11-27 02:47:00,
2013-11-26 20:52:00,15.4,-4.7,30.18,NNE,22,0.0,3.1,40,0.00,,,0.00,WUHU21623XXSP,2013-11-27 02:52:00,
2013-11-26 20:57:00,15.4,-4.7,30.19,North,0,0.7,3.1,40,0.00,,,0.00,WUHU21623XXSP,2013-11-27 02:57:00,
2013-11-26 21:02:00,15.4,-4.7,30.19,NNW,337,0.0,1.3,40,0.00,,,0.00,WUHU21623XXSP,2013-11-27 03:02:00,
2013-11-26 21:07:00,15.3,-4.8,30.19,NNW,337,0.4,0.4,40,0.00,,,0.00,WUHU21623XXSP,2013-11-27 03:07:00,
2013-11-26 21:12:00,15.1,-5.0,30.19,NNW,337,0.0,2.0,40,0.00,,,0.00,WUHU21623XXSP,2013-11-27 03:12:00,
2013-11-26 21:17:00,15.1,-5.0,30.19,NE,45,0.7,2.0,40,0.00,,,0.00,WUHU21623XXSP,2013-11-27 03:17:00,
2013-11-26 21:22:00,15.1,-5.0,30.19,North,0,0.2,1.3,40,0.00,,,0.00,WUHU21623XXSP,2013-11-27 03:22:00,
2013-11-26 21:27:00,14.9,-5.2,30.20,NNW,337,0.7,6.9,40,0.00,,,0.00,WUHU21623XXSP,2013-11-27 03:27:00,
2013-11-26 21:32:00,14.9,-4.7,30.20,NNE,22,0.0,6.9,41,0.00,,,0.00,WUHU21623XXSP,2013-11-27 03:32:00,
2013-11-26 21:37:00,14.7,-5.3,30.20,NNE,22,4.7,4.7,40,0.00,,,0.00,WUHU21623XXSP,2013-11-27 03:37:00,
2013-11-26 21:42:00,14.7,-4.9,30.20,North,0,0.0,4.7,41,0.00,,,0.00,WUHU21623XXSP,2013-11-27 03:42:00,
2013-11-26 21:47:00,14.7,-4.9,30.20,North,0,0.4,0.7,41,0.00,,,0.00,WUHU21623XXSP,2013-11-27 03:47:00,
2013-11-26 21:52:00,14.7,-4.9,30.20,NNW,337,3.4,3.4,41,0.00,,,0.00,WUHU21623XXSP,2013-11-27 03:52:00,
2013-11-26 21:57:00,14.5,-5.0,30.20,NW,315,2.0,3.4,41,0.00,,,0.00,WUHU21623XXSP,2013-11-27 03:57:00,
2013-11-26 22:02:00,14.4,-5.2,30.21,NW,315,4.3,4.3,41,0.00,,,0.00,WUHU21623XXSP,2013-11-27 04:02:00,
2013-11-26 22:07:00,14.4,-5.2,30.21,North,0,0.0,4.3,41,0.00,,,0.00,WUHU21623XXSP,2013-11-27 04:07:00,
2013-11-26 22:12:00,14.4,-5.2,30.20,NW,315,0.0,0.9,41,0.00,,,0.00,WUHU21623XXSP,2013-11-27 04:12:00,
2013-11-26 22:17:00,14.4,-5.2,30.20,North,0,3.4,3.4,41,0.00,,,0.00,WUHU21623XXSP,2013-11-27 04:17:00,
2013-11-26 22:22:00,14.4,-5.2,30.20,North,0,0.0,3.4,41,0.00,,,0.00,WUHU21623XXSP,2013-11-27 04:22:00,
2013-11-26 22:27:00,14.2,-5.4,30.20,North,0,0.0,4.7,41,0.00,,,0.00,WUHU21623XXSP,2013-11-27 04:27:00,
2013-11-26 22:32:00,14.2,-5.4,30.20,NNW,337,0.0,4.7,41,0.00,,,0.00,WUHU21623XXSP,2013-11-27 04:32:00,
2013-11-26 22:37:00,14.2,-5.4,30.20,NW,315,2.5,2.5,41,0.00,,,0.00,WUHU21623XXSP,2013-11-27 04:37:00,
2013-11-26 22:42:00,13.8,-5.7,30.21,North,0,0.0,2.5,41,0.00,,,0.00,WUHU21623XXSP,2013-11-27 04:42:00,
2013-11-26 22:47:00,13.6,-5.8,30.20,NNW,337,0.0,0.0,41,0.00,,,0.00,WUHU21623XXSP,2013-11-27 04:47:00,
2013-11-26 22:52:00,13.5,-6.0,30.20,NW,315,0.0,0.0,41,0.00,,,0.00,WUHU21623XXSP,2013-11-27 04:52:00,
2013-11-26 22:57:00,13.1,-6.3,30.21,NW,315,2.5,2.5,41,0.00,,,0.00,WUHU21623XXSP,2013-11-27 04:57:00,
2013-11-26 23:01:00,13.1,-6.3,30.21,NW,315,2.5,2.5,41,0.00,,,0.00,WUHU21623XXSP,2013-11-27 05:01:00,
2013-11-26 23:06:00,13.1,-5.9,30.21,NNW,337,1.6,2.5,42,0.00,,,0.00,WUHU21623XXSP,2013-11-27 05:06:00,
2013-11-26 23:11:00,13.1,-5.9,30.21,NNW,337,0.0,1.6,42,0.00,,,0.00,WUHU21623XXSP,2013-11-27 05:11:00,
2013-11-26 23:16:00,12.9,-6.0,30.21,North,0,0.0,1.1,42,0.00,,,0.00,WUHU21623XXSP,2013-11-27 05:16:00,
2013-11-26 23:21:00,12.9,-6.0,30.21,NW,315,0.0,0.7,42,0.00,,,0.00,WUHU21623XXSP,2013-11-27 05:21:00,
2013-11-26 23:26:00,12.9,-6.0,30.20,NW,315,0.0,0.7,42,0.00,,,0.00,WUHU21623XXSP,2013-11-27 05:26:00,
2013-11-26 23:31:00,12.7,-6.2,30.20,NNE,22,0.0,3.4,42,0.00,,,0.00,WUHU21623XXSP,2013-11-27 05:31:00,
2013-11-26 23:36:00,12.6,-6.3,30.20,NW,315,0.0,3.4,42,0.00,,,0.00,WUHU21623XXSP,2013-11-27 05:36:00,
2013-11-26 23:41:00,12.6,-6.3,30.20,NNE,22,0.0,0.0,42,0.00,,,0.00,WUHU21623XXSP,2013-11-27 05:41:00,
2013-11-26 23:46:00,12.6,-6.3,30.20,NNW,337,0.0,0.0,42,0.00,,,0.00,WUHU21623XXSP,2013-11-27 05:46:00,
2013-11-26 23:51:00,12.4,-6.5,30.20,NNW,337,0.0,1.1,42,0.00,,,0.00,WUHU21623XXSP,2013-11-27 05:51:00,
2013-11-26 23:56:00,12.4,-6.5,30.20,WNW,292,1.1,1.1,42,0.00,,,0.00,WUHU21623XXSP,2013-11-27 05:56:00,